createdAt,value
2019-02-22T00:00:45.995Z,1021.91
2019-02-22T00:01:45.931Z,1021.89
2019-02-22T00:02:45.903Z,1021.92
2019-02-22T00:03:45.872Z,1021.94
2019-02-22T00:04:45.843Z,1021.96
2019-02-22T00:05:45.829Z,1022.01
2019-02-22T00:06:46.409Z,1022.04
2019-02-22T00:07:45.752Z,1022.06
2019-02-22T00:08:45.713Z,1022.11
2019-02-22T00:09:49.308Z,1022.06
2019-02-22T00:10:45.949Z,1022.03
2019-02-22T00:11:45.619Z,1022.06
2019-02-22T00:12:45.591Z,1022.13
2019-02-22T00:13:45.556Z,1022.11
2019-02-22T00:14:46.412Z,1022.12
2019-02-22T00:15:45.949Z,1022.12
2019-02-22T00:16:45.461Z,1022.13
2019-02-22T00:17:45.427Z,1022.16
2019-02-22T00:18:45.401Z,1022.24
2019-02-22T00:19:45.377Z,1022.18
2019-02-22T00:20:45.363Z,1022.22
2019-02-22T00:21:45.303Z,1022.29
2019-02-22T00:22:45.294Z,1022.26
2019-02-22T00:23:45.914Z,1022.28
2019-02-22T00:24:45.208Z,1022.29
2019-02-22T00:25:45.201Z,1022.26
2019-02-22T00:26:45.914Z,1022.31
2019-02-22T00:27:45.127Z,1022.37
2019-02-22T00:28:45.921Z,1022.36
2019-02-22T00:29:45.053Z,1022.29
2019-02-22T00:30:45.050Z,1022.34
2019-02-22T00:31:44.992Z,1022.45
2019-02-22T00:32:44.962Z,1022.35
2019-02-22T00:33:44.940Z,1022.37
2019-02-22T00:34:45.441Z,1022.53
2019-02-22T00:35:44.920Z,1022.42
2019-02-22T00:36:44.954Z,1022.54
2019-02-22T00:37:51.418Z,1022.55
2019-02-22T00:38:44.772Z,1022.56
2019-02-22T00:39:44.745Z,1022.65
2019-02-22T00:40:46.835Z,1022.65
2019-02-22T00:41:44.698Z,1022.59
2019-02-22T00:42:44.644Z,1022.80
2019-02-22T00:43:44.618Z,1022.70
2019-02-22T00:44:44.586Z,1022.62
2019-02-22T00:45:44.556Z,1022.72
2019-02-22T00:46:44.543Z,1022.68
2019-02-22T00:47:44.491Z,1022.71
2019-02-22T00:48:44.466Z,1022.88
2019-02-22T00:49:44.431Z,1022.65
2019-02-22T00:50:44.495Z,1022.72
2019-02-22T00:51:45.324Z,1022.68
2019-02-22T00:52:44.333Z,1022.73
2019-02-22T00:53:44.303Z,1022.75
2019-02-22T00:54:44.298Z,1022.72
2019-02-22T00:55:44.240Z,1022.75
2019-02-22T00:56:44.231Z,1022.81
2019-02-22T00:57:44.180Z,1022.83
2019-02-22T00:58:44.918Z,1022.77
2019-02-22T00:59:44.115Z,1022.81
2019-02-22T01:00:44.078Z,1022.80
2019-02-22T01:01:44.071Z,1022.79
2019-02-22T01:02:44.015Z,1022.95
2019-02-22T01:03:46.920Z,1022.92
2019-02-22T01:04:43.950Z,1022.97
2019-02-22T01:05:43.919Z,1022.87
2019-02-22T01:06:43.915Z,1022.89
2019-02-22T01:07:43.860Z,1022.92
2019-02-22T01:08:44.421Z,1022.93
2019-02-22T01:09:43.795Z,1023.22
2019-02-22T01:10:44.425Z,1022.88
2019-02-22T01:11:43.765Z,1023.00
2019-02-22T01:12:43.703Z,1023.00
2019-02-22T01:13:44.427Z,1023.03
2019-02-22T01:14:44.420Z,1023.09
2019-02-22T01:15:43.613Z,1023.08
2019-02-22T01:16:43.606Z,1023.08
2019-02-22T01:17:43.553Z,1023.13
2019-02-22T01:18:43.515Z,1023.14
2019-02-22T01:19:44.422Z,1023.15
2019-02-22T01:20:53.766Z,1023.12
2019-02-22T01:21:43.453Z,1023.15
2019-02-22T01:22:43.383Z,1023.23
2019-02-22T01:23:43.368Z,1023.12
2019-02-22T01:24:43.884Z,1023.19
2019-02-22T01:25:43.295Z,1023.13
2019-02-22T01:26:43.280Z,1023.15
2019-02-22T01:27:43.237Z,1023.28
2019-02-22T01:28:43.922Z,1023.29
2019-02-22T01:29:43.162Z,1023.26
2019-02-22T01:30:43.140Z,1023.31
2019-02-22T01:31:43.123Z,1023.31
2019-02-22T01:32:43.942Z,1023.33
2019-02-22T01:33:43.039Z,1023.37
2019-02-22T01:34:43.003Z,1023.34
2019-02-22T01:35:43.926Z,1023.41
2019-02-22T01:36:42.968Z,1023.51
2019-02-22T01:37:42.908Z,1023.49
2019-02-22T01:38:43.425Z,1023.48
2019-02-22T01:39:43.430Z,1023.51
2019-02-22T01:40:44.168Z,1023.56
2019-02-22T01:41:42.805Z,1023.61
2019-02-22T01:42:43.426Z,1023.65
2019-02-22T01:43:43.331Z,1023.71
2019-02-22T01:44:43.426Z,1023.62
2019-02-22T01:45:42.654Z,1023.61
2019-02-22T01:46:42.623Z,1023.61
2019-02-22T01:47:42.966Z,1023.67
2019-02-22T01:48:42.557Z,1023.64
2019-02-22T01:49:42.568Z,1023.68
2019-02-22T01:50:42.502Z,1023.74
2019-02-22T01:51:43.554Z,1023.82
2019-02-22T01:52:42.965Z,1023.74
2019-02-22T01:53:42.400Z,1023.67
2019-02-22T01:54:44.929Z,1023.72
2019-02-22T01:55:42.345Z,1023.71
2019-02-22T01:56:42.927Z,1023.80
2019-02-22T01:57:42.334Z,1023.74
2019-02-22T01:58:48.653Z,1023.73
2019-02-22T01:59:42.213Z,1023.71
2019-02-22T02:00:42.180Z,1023.69
2019-02-22T02:01:42.148Z,1023.78
2019-02-22T02:02:42.139Z,1023.74
2019-02-22T02:03:42.083Z,1023.74
2019-02-22T02:04:42.932Z,1023.69
2019-02-22T02:05:42.020Z,1023.81
2019-02-22T02:06:42.931Z,1023.88
2019-02-22T02:07:41.999Z,1023.82
2019-02-22T02:08:41.927Z,1023.81
2019-02-22T02:09:41.897Z,1023.89
2019-02-22T02:10:41.864Z,1023.86
2019-02-22T02:11:41.829Z,1023.99
2019-02-22T02:12:41.825Z,1023.87
2019-02-22T02:13:41.771Z,1023.95
2019-02-22T02:14:41.736Z,1023.97
2019-02-22T02:15:42.434Z,1023.94
2019-02-22T02:16:41.675Z,1024.01
2019-02-22T02:17:41.968Z,1023.96
2019-02-22T02:18:41.607Z,1023.97
2019-02-22T02:19:41.663Z,1024.03
2019-02-22T02:20:41.569Z,1024.09
2019-02-22T02:21:41.513Z,1024.14
2019-02-22T02:22:41.503Z,1024.07
2019-02-22T02:23:41.449Z,1024.06
2019-02-22T02:24:41.989Z,1024.13
2019-02-22T02:25:41.934Z,1024.13
2019-02-22T02:26:41.353Z,1024.10
2019-02-22T02:27:41.343Z,1024.13
2019-02-22T02:28:41.291Z,1024.17
2019-02-22T02:29:41.257Z,1024.26
2019-02-22T02:30:41.242Z,1024.23
2019-02-22T02:31:41.931Z,1024.19
2019-02-22T02:32:41.969Z,1024.17
2019-02-22T02:33:41.135Z,1024.21
2019-02-22T02:34:41.095Z,1024.20
2019-02-22T02:35:41.068Z,1024.28
2019-02-22T02:36:41.040Z,1024.27
2019-02-22T02:37:41.004Z,1024.24
2019-02-22T02:38:41.003Z,1024.21
2019-02-22T02:39:40.943Z,1024.23
2019-02-22T02:40:41.433Z,1024.26
2019-02-22T02:41:40.914Z,1024.31
2019-02-22T02:42:40.845Z,1024.32
2019-02-22T02:43:40.887Z,1024.30
2019-02-22T02:44:40.785Z,1024.30
2019-02-22T02:45:41.839Z,1024.36
2019-02-22T02:46:40.713Z,1024.36
2019-02-22T02:47:45.340Z,1024.44
2019-02-22T02:48:40.671Z,1024.48
2019-02-22T02:49:40.622Z,1024.50
2019-02-22T02:50:40.587Z,1024.44
2019-02-22T02:51:40.591Z,1024.54
2019-02-22T02:52:40.527Z,1024.55
2019-02-22T02:53:40.537Z,1024.52
2019-02-22T02:54:40.476Z,1024.54
2019-02-22T02:55:40.467Z,1024.52
2019-02-22T02:56:40.395Z,1024.62
2019-02-22T02:57:40.366Z,1024.58
2019-02-22T02:58:40.359Z,1024.59
2019-02-22T02:59:43.350Z,1024.62
2019-02-22T03:00:40.285Z,1024.63
2019-02-22T03:01:40.243Z,1024.66
2019-02-22T03:02:40.201Z,1024.66
2019-02-22T03:03:40.470Z,1024.70
2019-02-22T03:04:40.156Z,1024.70
2019-02-22T03:05:40.937Z,1024.72
2019-02-22T03:06:40.939Z,1024.70
2019-02-22T03:07:40.044Z,1024.75
2019-02-22T03:08:40.035Z,1024.74
2019-02-22T03:09:39.986Z,1024.72
2019-02-22T03:10:40.079Z,1024.72
2019-02-22T03:11:39.921Z,1024.82
2019-02-22T03:12:39.885Z,1024.84
2019-02-22T03:13:40.161Z,1024.78
2019-02-22T03:14:39.827Z,1024.96
2019-02-22T03:15:39.793Z,1024.85
2019-02-22T03:16:39.759Z,1024.87
2019-02-22T03:17:39.729Z,1024.90
2019-02-22T03:18:39.970Z,1024.87
2019-02-22T03:19:39.661Z,1024.89
2019-02-22T03:20:39.634Z,1024.89
2019-02-22T03:21:40.452Z,1024.90
2019-02-22T03:22:39.571Z,1025.03
2019-02-22T03:23:39.569Z,1024.92
2019-02-22T03:24:40.438Z,1024.94
2019-02-22T03:25:40.445Z,1024.92
2019-02-22T03:26:39.939Z,1024.95
2019-02-22T03:27:39.412Z,1025.02
2019-02-22T03:28:39.421Z,1025.07
2019-02-22T03:29:39.342Z,1025.06
2019-02-22T03:30:39.943Z,1025.04
2019-02-22T03:31:39.942Z,1025.04
2019-02-22T03:32:39.945Z,1025.04
2019-02-22T03:33:39.432Z,1025.12
2019-02-22T03:34:39.184Z,1025.12
2019-02-22T03:35:39.943Z,1025.13
2019-02-22T03:36:39.941Z,1025.15
2019-02-22T03:37:39.950Z,1025.16
2019-02-22T03:38:39.083Z,1025.17
2019-02-22T03:39:39.033Z,1025.13
2019-02-22T03:40:38.994Z,1025.17
2019-02-22T03:41:38.961Z,1025.21
2019-02-22T03:42:38.937Z,1025.20
2019-02-22T03:43:38.944Z,1025.27
2019-02-22T03:44:38.873Z,1025.22
2019-02-22T03:45:38.842Z,1025.29
2019-02-22T03:46:38.807Z,1025.25
2019-02-22T03:47:39.441Z,1025.28
2019-02-22T03:48:39.449Z,1025.29
2019-02-22T03:49:38.741Z,1025.35
2019-02-22T03:50:39.485Z,1025.36
2019-02-22T03:51:39.446Z,1025.36
2019-02-22T03:52:38.615Z,1025.38
2019-02-22T03:53:38.584Z,1025.35
2019-02-22T03:54:38.576Z,1025.51
2019-02-22T03:55:38.523Z,1025.43
2019-02-22T03:56:38.491Z,1025.47
2019-02-22T03:57:38.455Z,1025.50
2019-02-22T03:58:38.456Z,1025.51
2019-02-22T03:59:38.416Z,1025.50
2019-02-22T04:00:38.363Z,1025.52
2019-02-22T04:01:38.329Z,1025.51
2019-02-22T04:02:38.302Z,1025.53
2019-02-22T04:03:40.954Z,1025.54
2019-02-22T04:04:38.255Z,1025.54
2019-02-22T04:05:38.205Z,1025.53
2019-02-22T04:06:38.179Z,1025.55
2019-02-22T04:07:38.955Z,1025.57
2019-02-22T04:08:38.853Z,1025.57
2019-02-22T04:09:38.120Z,1025.58
2019-02-22T04:10:38.949Z,1025.63
2019-02-22T04:11:45.711Z,1025.62
2019-02-22T04:12:38.946Z,1025.67
2019-02-22T04:13:37.947Z,1025.65
2019-02-22T04:14:37.940Z,1025.65
2019-02-22T04:15:37.882Z,1025.71
2019-02-22T04:16:37.854Z,1025.65
2019-02-22T04:17:38.406Z,1025.70
2019-02-22T04:18:37.796Z,1025.69
2019-02-22T04:19:37.797Z,1025.72
2019-02-22T04:20:37.727Z,1025.73
2019-02-22T04:21:37.694Z,1025.83
2019-02-22T04:22:37.676Z,1025.87
2019-02-22T04:23:37.649Z,1025.97
2019-02-22T04:24:37.625Z,1025.95
2019-02-22T04:25:37.579Z,1025.95
2019-02-22T04:26:37.544Z,1026.02
2019-02-22T04:27:37.505Z,1026.00
2019-02-22T04:28:37.471Z,1026.03
2019-02-22T04:29:37.692Z,1026.01
2019-02-22T04:30:38.065Z,1026.13
2019-02-22T04:31:37.462Z,1026.10
2019-02-22T04:32:37.348Z,1026.06
2019-02-22T04:33:37.316Z,1026.07
2019-02-22T04:34:37.481Z,1026.08
2019-02-22T04:35:37.268Z,1026.18
2019-02-22T04:36:37.951Z,1026.12
2019-02-22T04:37:37.184Z,1026.14
2019-02-22T04:38:37.159Z,1026.23
2019-02-22T04:39:37.145Z,1026.27
2019-02-22T04:40:37.125Z,1026.26
2019-02-22T04:41:37.067Z,1026.27
2019-02-22T04:42:37.949Z,1026.35
2019-02-22T04:43:37.857Z,1026.30
2019-02-22T04:44:38.504Z,1026.30
2019-02-22T04:45:37.451Z,1026.32
2019-02-22T04:46:36.908Z,1026.36
2019-02-22T04:47:36.950Z,1026.40
2019-02-22T04:48:39.453Z,1026.44
2019-02-22T04:49:36.841Z,1026.52
2019-02-22T04:50:36.795Z,1026.42
2019-02-22T04:51:36.751Z,1026.45
2019-02-22T04:52:36.769Z,1026.48
2019-02-22T04:53:36.669Z,1026.61
2019-02-22T04:54:37.458Z,1026.62
2019-02-22T04:55:36.636Z,1026.63
2019-02-22T04:56:37.358Z,1026.77
2019-02-22T04:57:37.451Z,1026.63
2019-02-22T04:58:36.510Z,1026.84
2019-02-22T04:59:37.367Z,1026.77
2019-02-22T05:00:36.476Z,1026.80
2019-02-22T05:01:36.985Z,1026.82
2019-02-22T05:02:36.377Z,1026.89
2019-02-22T05:03:36.342Z,1026.88
2019-02-22T05:04:36.310Z,1026.91
2019-02-22T05:05:36.305Z,1026.90
2019-02-22T05:06:36.264Z,1026.94
2019-02-22T05:07:36.215Z,1026.95
2019-02-22T05:08:36.181Z,1026.94
2019-02-22T05:09:36.155Z,1027.01
2019-02-22T05:10:36.492Z,1027.04
2019-02-22T05:11:36.979Z,1027.10
2019-02-22T05:12:36.054Z,1027.10
2019-02-22T05:13:36.019Z,1027.21
2019-02-22T05:14:36.957Z,1027.20
2019-02-22T05:15:37.026Z,1027.18
2019-02-22T05:16:35.968Z,1027.31
2019-02-22T05:17:35.921Z,1027.30
2019-02-22T05:18:36.456Z,1027.23
2019-02-22T05:19:35.818Z,1027.35
2019-02-22T05:20:35.810Z,1027.43
2019-02-22T05:21:35.752Z,1027.46
2019-02-22T05:22:35.721Z,1027.53
2019-02-22T05:23:35.751Z,1027.53
2019-02-22T05:24:36.456Z,1027.54
2019-02-22T05:25:35.986Z,1027.52
2019-02-22T05:26:35.587Z,1027.56
2019-02-22T05:27:36.455Z,1027.66
2019-02-22T05:28:36.464Z,1027.70
2019-02-22T05:29:36.459Z,1027.81
2019-02-22T05:30:36.556Z,1027.74
2019-02-22T05:31:35.959Z,1027.82
2019-02-22T05:32:35.955Z,1027.78
2019-02-22T05:33:35.963Z,1027.81
2019-02-22T05:34:35.366Z,1027.90
2019-02-22T05:35:35.582Z,1027.89
2019-02-22T05:36:35.272Z,1027.89
2019-02-22T05:37:35.225Z,1027.93
2019-02-22T05:38:35.209Z,1027.98
2019-02-22T05:39:37.962Z,1028.05
2019-02-22T05:40:35.493Z,1028.12
2019-02-22T05:41:35.092Z,1028.25
2019-02-22T05:42:35.053Z,1028.18
2019-02-22T05:43:35.026Z,1028.23
2019-02-22T05:44:34.990Z,1028.24
2019-02-22T05:47:06.516Z,1028.41
2019-02-22T05:48:06.461Z,1028.40
2019-02-22T05:49:06.434Z,1028.39
2019-02-22T05:50:06.390Z,1028.43
2019-02-22T05:51:06.670Z,1028.41
2019-02-22T05:52:06.557Z,1028.43
2019-02-22T05:53:06.297Z,1028.44
2019-02-22T05:54:06.255Z,1028.50
2019-02-22T05:55:06.225Z,1028.54
2019-02-22T05:56:06.211Z,1028.70
2019-02-22T05:57:06.160Z,1028.58
2019-02-22T05:58:06.147Z,1028.72
2019-02-22T05:59:06.097Z,1028.70
2019-02-22T06:00:06.055Z,1028.75
2019-02-22T06:01:07.009Z,1028.82
2019-02-22T06:02:06.037Z,1028.81
2019-02-22T06:03:05.956Z,1028.91
2019-02-22T06:04:05.919Z,1028.94
2019-02-22T06:05:05.887Z,1029.06
2019-02-22T06:06:05.871Z,1029.02
2019-02-22T06:07:05.824Z,1029.12
2019-02-22T06:08:08.721Z,1029.21
2019-02-22T06:09:05.746Z,1029.05
2019-02-22T06:10:05.720Z,1029.09
2019-02-22T06:11:05.706Z,1029.15
2019-02-22T06:12:05.680Z,1029.15
2019-02-22T06:13:06.143Z,1029.18
2019-02-22T06:14:05.582Z,1029.24
2019-02-22T06:15:05.556Z,1029.28
2019-02-22T06:16:05.535Z,1029.31
2019-02-22T06:17:14.285Z,1029.36
2019-02-22T06:18:05.442Z,1029.38
2019-02-22T06:19:05.411Z,1029.40
2019-02-22T06:20:05.379Z,1029.42
2019-02-22T06:21:05.680Z,1029.46
2019-02-22T06:22:05.308Z,1029.45
2019-02-22T06:23:06.147Z,1029.44
2019-02-22T06:24:05.248Z,1029.61
2019-02-22T06:25:05.208Z,1029.51
2019-02-22T06:26:05.252Z,1029.61
2019-02-22T06:27:05.137Z,1029.58
2019-02-22T06:28:05.100Z,1029.62
2019-02-22T06:29:05.068Z,1029.59
2019-02-22T06:30:05.043Z,1029.63
2019-02-22T06:31:05.659Z,1029.71
2019-02-22T06:32:04.991Z,1029.76
2019-02-22T06:33:05.642Z,1029.77
2019-02-22T06:34:04.894Z,1029.85
2019-02-22T06:35:05.648Z,1029.89
2019-02-22T06:36:04.829Z,1029.86
2019-02-22T06:37:05.200Z,1029.89
2019-02-22T06:38:04.853Z,1029.93
2019-02-22T06:39:05.644Z,1030.02
2019-02-22T06:40:04.692Z,1030.00
2019-02-22T06:41:04.657Z,1029.99
2019-02-22T06:42:04.647Z,1030.04
2019-02-22T06:43:04.650Z,1030.06
2019-02-22T06:44:04.587Z,1030.05
2019-02-22T06:45:04.524Z,1030.16
2019-02-22T06:46:04.484Z,1030.15
2019-02-22T06:47:04.477Z,1030.18
2019-02-22T06:48:04.413Z,1030.21
2019-02-22T06:49:04.382Z,1030.23
2019-02-22T06:50:04.352Z,1030.39
2019-02-22T06:51:04.312Z,1030.27
2019-02-22T06:52:04.300Z,1030.30
2019-02-22T06:53:04.247Z,1030.27
2019-02-22T06:54:04.212Z,1030.29
2019-02-22T06:55:04.177Z,1030.33
2019-02-22T06:56:04.138Z,1030.32
2019-02-22T06:57:04.128Z,1030.31
2019-02-22T06:58:04.071Z,1030.38
2019-02-22T06:59:04.038Z,1030.36
2019-02-22T07:00:04.010Z,1030.44
2019-02-22T07:01:04.004Z,1030.48
2019-02-22T07:02:03.973Z,1030.49
2019-02-22T07:03:03.905Z,1030.53
2019-02-22T07:04:03.869Z,1030.61
2019-02-22T07:05:03.837Z,1030.61
2019-02-22T07:06:05.647Z,1030.56
2019-02-22T07:07:03.794Z,1030.59
2019-02-22T07:08:03.730Z,1030.63
2019-02-22T07:09:03.714Z,1030.68
2019-02-22T07:10:03.670Z,1030.70
2019-02-22T07:11:03.626Z,1030.71
2019-02-22T07:12:03.621Z,1030.77
2019-02-22T07:13:03.561Z,1030.79
2019-02-22T07:14:03.527Z,1030.78
2019-02-22T07:15:03.495Z,1030.79
2019-02-22T07:16:03.456Z,1030.88
2019-02-22T07:17:03.424Z,1030.80
2019-02-22T07:18:03.421Z,1030.89
2019-02-22T07:19:03.417Z,1030.93
2019-02-22T07:20:03.323Z,1030.93
2019-02-22T07:21:03.293Z,1030.96
2019-02-22T07:22:03.257Z,1031.03
2019-02-22T07:23:05.052Z,1031.04
2019-02-22T07:24:03.193Z,1031.07
2019-02-22T07:25:03.152Z,1031.16
2019-02-22T07:26:03.119Z,1031.08
2019-02-22T07:27:03.083Z,1031.20
2019-02-22T07:28:03.115Z,1031.17
2019-02-22T07:29:03.022Z,1031.19
2019-02-22T07:30:02.981Z,1031.20
2019-02-22T07:31:02.948Z,1031.25
2019-02-22T07:32:06.108Z,1031.31
2019-02-22T07:33:02.905Z,1031.27
2019-02-22T07:34:02.849Z,1031.36
2019-02-22T07:35:02.812Z,1031.40
2019-02-22T07:36:03.647Z,1031.40
2019-02-22T07:37:02.759Z,1031.45
2019-02-22T07:38:02.777Z,1031.46
2019-02-22T07:39:03.650Z,1031.55
2019-02-22T07:40:02.640Z,1031.54
2019-02-22T07:41:02.626Z,1031.62
2019-02-22T07:42:02.572Z,1031.71
2019-02-22T07:43:08.107Z,1031.64
2019-02-22T07:44:03.055Z,1031.70
2019-02-22T07:45:02.468Z,1031.73
2019-02-22T07:46:02.434Z,1031.70
2019-02-22T07:47:02.397Z,1031.83
2019-02-22T07:48:02.397Z,1031.84
2019-02-22T07:49:02.333Z,1031.86
2019-02-22T07:50:02.301Z,1031.92
2019-02-22T07:51:02.286Z,1031.97
2019-02-22T07:52:02.233Z,1032.01
2019-02-22T07:53:02.218Z,1032.03
2019-02-22T07:54:02.163Z,1032.02
2019-02-22T07:55:02.127Z,1032.03
2019-02-22T07:56:02.094Z,1032.20
2019-02-22T07:57:02.121Z,1032.17
2019-02-22T07:58:02.050Z,1032.15
2019-02-22T07:59:03.187Z,1032.21
2019-02-22T08:00:01.969Z,1032.28
2019-02-22T08:01:01.943Z,1032.23
2019-02-22T08:02:01.889Z,1032.27
2019-02-22T08:03:01.878Z,1032.28
2019-02-22T08:04:01.826Z,1032.43
2019-02-22T08:05:01.794Z,1032.38
2019-02-22T08:06:01.751Z,1032.44
2019-02-22T08:07:01.719Z,1032.51
2019-02-22T08:08:01.709Z,1032.50
2019-02-22T08:09:01.654Z,1032.65
2019-02-22T08:10:01.681Z,1032.55
2019-02-22T08:11:01.581Z,1032.58
2019-02-22T08:12:01.549Z,1032.63
2019-02-22T08:13:01.593Z,1032.67
2019-02-22T08:14:01.479Z,1032.72
2019-02-22T08:15:02.149Z,1032.71
2019-02-22T08:16:01.411Z,1032.74
2019-02-22T08:17:01.382Z,1032.75
2019-02-22T08:18:01.366Z,1032.72
2019-02-22T08:19:02.005Z,1032.74
2019-02-22T08:20:01.304Z,1032.73
2019-02-22T08:21:01.250Z,1032.80
2019-02-22T08:22:03.455Z,1032.83
2019-02-22T08:23:01.186Z,1032.83
2019-02-22T08:24:01.175Z,1032.89
2019-02-22T08:25:01.126Z,1032.83
2019-02-22T08:26:01.081Z,1032.95
2019-02-22T08:27:01.047Z,1032.98
2019-02-22T08:28:01.006Z,1032.97
2019-02-22T08:29:01.004Z,1033.02
2019-02-22T08:30:00.939Z,1033.03
2019-02-22T08:31:00.916Z,1033.01
2019-02-22T08:32:01.667Z,1033.00
2019-02-22T08:33:00.837Z,1033.01
2019-02-22T08:34:00.828Z,1033.10
2019-02-22T08:35:00.771Z,1033.10
2019-02-22T08:36:01.673Z,1033.07
2019-02-22T08:37:00.751Z,1033.13
2019-02-22T08:38:00.672Z,1033.03
2019-02-22T08:39:00.686Z,1033.21
2019-02-22T08:40:02.263Z,1033.12
2019-02-22T08:41:00.573Z,1033.13
2019-02-22T08:42:00.539Z,1033.27
2019-02-22T08:43:00.506Z,1033.25
2019-02-22T08:44:00.493Z,1033.23
2019-02-22T08:45:00.473Z,1033.28
2019-02-22T08:46:01.155Z,1033.29
2019-02-22T08:47:00.368Z,1033.24
2019-02-22T08:48:00.340Z,1033.36
2019-02-22T08:49:00.324Z,1033.32
2019-02-22T08:50:00.348Z,1033.40
2019-02-22T08:51:00.234Z,1033.37
2019-02-22T08:52:00.206Z,1033.38
2019-02-22T08:53:00.169Z,1033.36
2019-02-22T08:54:00.165Z,1033.44
2019-02-22T08:55:00.660Z,1033.47
2019-02-22T08:56:00.069Z,1033.55
2019-02-22T08:57:00.038Z,1033.54
2019-02-22T08:58:00.005Z,1033.60
2019-02-22T08:58:59.995Z,1033.60
2019-02-22T08:59:59.960Z,1033.62
2019-02-22T09:01:00.656Z,1033.64
2019-02-22T09:01:59.876Z,1033.71
2019-02-22T09:02:59.837Z,1033.65
2019-02-22T09:03:59.827Z,1033.64
2019-02-22T09:04:59.778Z,1033.65
2019-02-22T09:06:00.667Z,1033.70
2019-02-22T09:06:59.704Z,1033.67
2019-02-22T09:08:00.656Z,1033.70
2019-02-22T09:08:59.666Z,1033.78
2019-02-22T09:09:59.603Z,1033.80
2019-02-22T09:11:00.816Z,1033.73
2019-02-22T09:11:59.538Z,1033.84
2019-02-22T09:12:59.505Z,1033.82
2019-02-22T09:14:00.157Z,1033.86
2019-02-22T09:14:59.460Z,1033.90
2019-02-22T09:15:59.406Z,1033.93
2019-02-22T09:16:59.372Z,1033.97
2019-02-22T09:17:59.334Z,1034.02
2019-02-22T09:18:59.303Z,1034.06
2019-02-22T09:19:59.294Z,1034.04
2019-02-22T09:20:59.234Z,1034.07
2019-02-22T09:21:59.201Z,1034.04
2019-02-22T09:23:00.159Z,1034.01
2019-02-22T09:23:59.137Z,1034.08
2019-02-22T09:24:59.122Z,1034.10
2019-02-22T09:25:59.065Z,1034.07
2019-02-22T09:26:59.075Z,1034.10
2019-02-22T09:27:58.998Z,1034.13
2019-02-22T09:28:59.664Z,1034.14
2019-02-22T09:29:59.316Z,1034.24
2019-02-22T09:30:58.897Z,1034.26
2019-02-22T09:31:58.865Z,1034.28
2019-02-22T09:32:58.841Z,1034.25
2019-02-22T09:33:58.796Z,1034.26
2019-02-22T09:34:58.787Z,1034.33
2019-02-22T09:35:58.731Z,1034.36
2019-02-22T09:36:58.792Z,1034.40
2019-02-22T09:37:59.160Z,1034.39
2019-02-22T09:38:59.160Z,1034.45
2019-02-22T09:39:58.691Z,1034.44
2019-02-22T09:40:58.565Z,1034.48
2019-02-22T09:41:58.530Z,1034.53
2019-02-22T09:42:58.549Z,1034.54
2019-02-22T09:43:58.468Z,1034.44
2019-02-22T09:44:58.465Z,1034.50
2019-02-22T09:45:58.410Z,1034.55
2019-02-22T09:46:58.371Z,1034.52
2019-02-22T09:47:58.337Z,1034.59
2019-02-22T09:48:59.161Z,1034.67
2019-02-22T09:49:58.291Z,1034.58
2019-02-22T09:50:58.249Z,1034.61
2019-02-22T09:51:58.201Z,1034.63
2019-02-22T09:52:58.220Z,1034.68
2019-02-22T09:53:58.134Z,1034.75
2019-02-22T09:54:58.133Z,1034.62
2019-02-22T09:55:58.076Z,1034.71
2019-02-22T09:56:58.137Z,1034.65
2019-02-22T09:57:58.013Z,1034.66
2019-02-22T09:58:57.974Z,1034.76
2019-02-22T09:59:58.207Z,1034.65
2019-02-22T10:00:57.907Z,1034.76
2019-02-22T10:01:57.875Z,1034.79
2019-02-22T10:02:58.586Z,1034.72
2019-02-22T10:03:58.666Z,1034.71
2019-02-22T10:04:57.799Z,1034.70
2019-02-22T10:05:57.740Z,1034.68
2019-02-22T10:06:57.711Z,1034.67
2019-02-22T10:07:57.676Z,1034.69
2019-02-22T10:08:57.651Z,1034.65
2019-02-22T10:09:57.638Z,1034.64
2019-02-22T10:10:57.579Z,1034.63
2019-02-22T10:11:57.545Z,1034.69
2019-02-22T10:12:57.504Z,1034.66
2019-02-22T10:14:06.251Z,1034.66
2019-02-22T10:14:57.465Z,1034.71
2019-02-22T10:15:57.405Z,1034.67
2019-02-22T10:16:57.371Z,1034.70
2019-02-22T10:17:57.341Z,1034.65
2019-02-22T10:18:57.368Z,1034.76
2019-02-22T10:19:57.268Z,1034.71
2019-02-22T10:20:57.263Z,1034.71
2019-02-22T10:21:57.756Z,1034.75
2019-02-22T10:22:57.164Z,1034.72
2019-02-22T10:23:57.141Z,1034.78
2019-02-22T10:24:57.664Z,1034.78
2019-02-22T10:25:57.091Z,1034.70
2019-02-22T10:26:57.030Z,1034.81
2019-02-22T10:27:56.998Z,1034.82
2019-02-22T10:28:56.960Z,1034.75
2019-02-22T10:29:56.929Z,1034.86
2019-02-22T10:30:56.914Z,1034.81
2019-02-22T10:31:56.862Z,1034.82
2019-02-22T10:32:56.825Z,1034.78
2019-02-22T10:33:56.787Z,1034.78
2019-02-22T10:34:56.758Z,1034.87
2019-02-22T10:35:56.747Z,1034.94
2019-02-22T10:36:56.736Z,1034.85
2019-02-22T10:37:56.651Z,1034.84
2019-02-22T10:38:56.642Z,1034.83
2019-02-22T10:39:56.593Z,1034.86
2019-02-22T10:40:56.571Z,1034.88
2019-02-22T10:41:56.513Z,1034.88
2019-02-22T10:42:56.480Z,1034.96
2019-02-22T10:43:56.449Z,1034.95
2019-02-22T10:44:56.413Z,1034.97
2019-02-22T10:45:56.400Z,1034.97
2019-02-22T10:46:56.348Z,1034.91
2019-02-22T10:47:56.311Z,1035.04
2019-02-22T10:48:56.301Z,1035.02
2019-02-22T10:49:57.197Z,1035.02
2019-02-22T10:50:59.070Z,1035.04
2019-02-22T10:51:56.176Z,1035.03
2019-02-22T10:53:02.211Z,1035.10
2019-02-22T10:53:56.117Z,1035.12
2019-02-22T10:54:56.670Z,1034.99
2019-02-22T10:55:56.078Z,1035.07
2019-02-22T10:56:56.001Z,1035.09
2019-02-22T10:57:55.966Z,1035.04
2019-02-22T10:58:55.935Z,1035.08
2019-02-22T10:59:57.582Z,1035.07
2019-02-22T11:00:55.905Z,1035.06
2019-02-22T11:01:55.834Z,1035.04
2019-02-22T11:02:55.800Z,1035.05
2019-02-22T11:03:55.764Z,1035.09
2019-02-22T11:04:55.729Z,1035.08
2019-02-22T11:05:56.580Z,1035.10
2019-02-22T11:06:55.661Z,1035.12
2019-02-22T11:07:55.629Z,1035.18
2019-02-22T11:08:55.593Z,1035.13
2019-02-22T11:09:55.563Z,1035.15
2019-02-22T11:10:55.547Z,1035.18
2019-02-22T11:11:55.508Z,1035.16
2019-02-22T11:12:55.459Z,1035.22
2019-02-22T11:13:55.422Z,1035.12
2019-02-22T11:14:55.394Z,1035.12
2019-02-22T11:15:55.383Z,1035.20
2019-02-22T11:16:55.318Z,1035.21
2019-02-22T11:17:55.289Z,1035.20
2019-02-22T11:18:55.288Z,1035.18
2019-02-22T11:19:55.219Z,1035.22
2019-02-22T11:20:55.207Z,1035.24
2019-02-22T11:21:55.213Z,1035.29
2019-02-22T11:22:55.681Z,1035.27
2019-02-22T11:23:55.078Z,1035.26
2019-02-22T11:24:55.050Z,1035.26
2019-02-22T11:25:55.054Z,1035.30
2019-02-22T11:26:54.981Z,1035.25
2019-02-22T11:27:54.944Z,1035.31
2019-02-22T11:28:54.916Z,1035.37
2019-02-22T11:29:54.877Z,1035.37
2019-02-22T11:30:55.674Z,1035.46
2019-02-22T11:31:54.835Z,1035.46
2019-02-22T11:32:54.777Z,1035.53
2019-02-22T11:33:54.740Z,1035.53
2019-02-22T11:34:55.678Z,1035.47
2019-02-22T11:35:54.686Z,1035.50
2019-02-22T11:36:54.677Z,1035.48
2019-02-22T11:37:54.620Z,1035.52
2019-02-22T11:38:54.590Z,1035.52
2019-02-22T11:39:54.557Z,1035.56
2019-02-22T11:40:56.095Z,1035.57
2019-02-22T11:41:54.724Z,1035.52
2019-02-22T11:42:54.505Z,1035.56
2019-02-22T11:43:55.236Z,1035.60
2019-02-22T11:44:54.382Z,1035.62
2019-02-22T11:45:54.340Z,1035.63
2019-02-22T11:48:25.855Z,1035.66
2019-02-22T11:49:25.797Z,1035.70
2019-02-22T11:50:25.763Z,1035.72
2019-02-22T11:51:25.758Z,1035.72
2019-02-22T11:52:25.722Z,1035.72
2019-02-22T11:53:25.660Z,1035.74
2019-02-22T11:54:25.626Z,1035.70
2019-02-22T11:55:25.593Z,1035.74
2019-02-22T11:56:25.580Z,1035.75
2019-02-22T11:57:25.588Z,1035.77
2019-02-22T11:58:25.495Z,1035.71
2019-02-22T11:59:25.453Z,1035.77
2019-02-22T12:00:25.421Z,1035.73
2019-02-22T12:01:25.418Z,1035.75
2019-02-22T12:02:25.353Z,1035.78
2019-02-22T12:03:25.397Z,1035.75
2019-02-22T12:04:25.290Z,1035.85
2019-02-22T12:05:25.253Z,1035.84
2019-02-22T12:06:25.260Z,1035.84
2019-02-22T12:07:25.204Z,1035.81
2019-02-22T12:08:25.153Z,1035.89